Avenal, California
Current Conditions -  °F | °C
As of 1:56 PM on Monday 24 Nov 2014 (Local Time) from KNLC Reporting Station
Scattered Clouds Scattered Clouds  
Wind Chill: 62°   Ceiling: Unl
Heat Index: 62°   Visibility: 9mi
Dew Point: 44°   Wind: 3mph
Humidity: 52%   Direction: NA
Pressure: 30.37"   Gusts: NA
Location:  36°N, 120.13°W
Report Text: KNLC 242156Z VRB03KT 9SM SCT230 17/07 A3037 RMK AO2 SLP284 RH/51 T01670067 $
Loading
Personal Weather Stations






























Interactive Weather Map New forecast layout! Learn more

10-Day Weather Forecast

Advertisements
Track Severe Weather on mobile